createdAt,value
2023-05-04T00:01:22.759Z,95.43
2023-05-04T00:03:49.826Z,100.00
2023-05-04T00:06:17.130Z,100.00
2023-05-04T00:08:44.077Z,100.00
2023-05-04T00:11:11.587Z,100.00
2023-05-04T00:13:38.719Z,100.00
2023-05-04T00:16:05.939Z,100.00
2023-05-04T00:18:33.614Z,100.00
2023-05-04T00:21:00.655Z,100.00
2023-05-04T00:23:27.760Z,100.00
2023-05-04T00:25:54.735Z,100.00
2023-05-04T00:28:21.707Z,100.00
2023-05-04T00:30:48.998Z,100.00
2023-05-04T00:33:16.175Z,100.00
2023-05-04T00:35:43.425Z,100.00
2023-05-04T00:38:10.402Z,100.00
2023-05-04T00:40:37.492Z,100.00
2023-05-04T00:43:04.493Z,100.00
2023-05-04T00:45:32.511Z,100.00
2023-05-04T00:48:00.170Z,100.00
2023-05-04T00:50:28.753Z,100.00
2023-05-04T00:52:59.175Z,100.00
2023-05-04T00:55:26.796Z,100.00
2023-05-04T00:57:54.305Z,100.00
2023-05-04T01:00:21.553Z,100.00
2023-05-04T01:02:50.028Z,100.00
2023-05-04T01:05:17.344Z,100.00
2023-05-04T01:08:02.160Z,100.00
2023-05-04T01:10:53.775Z,100.00
2023-05-04T01:13:22.558Z,100.00
2023-05-04T01:15:49.821Z,100.00
2023-05-04T01:18:17.165Z,100.00
2023-05-04T01:20:44.282Z,100.00
2023-05-04T01:23:11.694Z,100.00
2023-05-04T01:26:11.294Z,100.00
2023-05-04T01:28:45.656Z,100.00
2023-05-04T01:31:17.039Z,100.00
2023-05-04T01:33:45.355Z,100.00
2023-05-04T01:36:12.380Z,100.00
2023-05-04T01:38:39.353Z,100.00
2023-05-04T01:41:06.706Z,100.00
2023-05-04T01:43:33.645Z,100.00
2023-05-04T01:46:00.602Z,100.00
2023-05-04T01:48:28.424Z,100.00
2023-05-04T01:50:55.591Z,100.00
2023-05-04T01:53:22.562Z,100.00
2023-05-04T01:55:49.582Z,100.00
2023-05-04T01:58:18.399Z,100.00
2023-05-04T02:00:46.244Z,100.00
2023-05-04T02:03:13.557Z,100.00
2023-05-04T02:05:40.826Z,100.00
2023-05-04T02:08:07.915Z,100.00
2023-05-04T02:10:34.943Z,100.00
2023-05-04T02:13:01.953Z,100.00
2023-05-04T02:15:28.977Z,100.00
2023-05-04T02:17:56.010Z,100.00
2023-05-04T02:20:23.037Z,100.00
2023-05-04T02:22:49.972Z,100.00
2023-05-04T02:25:18.764Z,100.00
2023-05-04T02:27:46.054Z,100.00
2023-05-04T02:30:13.872Z,100.00
2023-05-04T02:32:41.215Z,100.00
2023-05-04T02:35:08.560Z,100.00
2023-05-04T02:37:35.897Z,100.00
2023-05-04T02:40:04.473Z,100.00
2023-05-04T02:42:32.247Z,100.00
2023-05-04T02:44:59.465Z,100.00
2023-05-04T02:47:26.746Z,100.00
2023-05-04T02:49:53.813Z,100.00
2023-05-04T02:52:20.767Z,100.00
2023-05-04T02:54:47.788Z,100.00
2023-05-04T02:57:14.794Z,100.00
2023-05-04T02:59:41.809Z,100.00
2023-05-04T03:02:08.845Z,100.00
2023-05-04T03:04:35.984Z,100.00
2023-05-04T03:07:03.166Z,100.00
2023-05-04T03:09:30.451Z,100.00
2023-05-04T03:11:59.082Z,100.00
2023-05-04T03:14:26.407Z,100.00
2023-05-04T03:16:53.499Z,100.00
2023-05-04T03:19:22.297Z,100.00
2023-05-04T03:21:49.946Z,100.00
2023-05-04T03:24:18.156Z,100.00
2023-05-04T03:26:45.353Z,100.00
2023-05-04T03:29:12.312Z,100.00
2023-05-04T03:31:40.495Z,100.00
2023-05-04T03:34:09.899Z,100.00
2023-05-04T03:36:36.882Z,100.00
2023-05-04T03:39:03.996Z,100.00
2023-05-04T03:41:31.969Z,100.00
2023-05-04T03:43:59.549Z,100.00
2023-05-04T03:46:26.729Z,100.00
2023-05-04T03:48:54.021Z,100.00
2023-05-04T03:51:21.738Z,100.00
2023-05-04T03:53:48.679Z,100.00
2023-05-04T03:56:17.678Z,100.00
2023-05-04T03:58:44.933Z,100.00
2023-05-04T04:01:14.468Z,100.00
2023-05-04T04:03:41.719Z,100.00
2023-05-04T04:06:10.512Z,100.00
2023-05-04T04:08:38.251Z,100.00
2023-05-04T04:11:05.561Z,100.00
2023-05-04T04:13:32.603Z,100.00
2023-05-04T04:15:59.669Z,100.00
2023-05-04T04:18:26.749Z,100.00
2023-05-04T04:20:53.937Z,100.00
2023-05-04T04:23:21.804Z,100.00
2023-05-04T04:25:49.025Z,100.00
2023-05-04T04:28:16.619Z,100.00
2023-05-04T04:30:43.900Z,100.00
2023-05-04T04:33:10.968Z,100.00
2023-05-04T04:35:38.085Z,100.00
2023-05-04T04:38:05.089Z,100.00
2023-05-04T04:40:32.105Z,100.00
2023-05-04T04:42:59.081Z,100.00
2023-05-04T04:45:26.378Z,100.00
2023-05-04T04:47:53.462Z,100.00
2023-05-04T04:50:20.787Z,100.00
2023-05-04T04:52:47.729Z,100.00
2023-05-04T04:55:16.821Z,100.00
2023-05-04T04:57:43.905Z,100.00
2023-05-04T05:00:11.949Z,100.00
2023-05-04T05:02:39.016Z,100.00
2023-05-04T05:05:07.020Z,100.00
2023-05-04T05:07:34.293Z,100.00
2023-05-04T05:10:01.861Z,100.00
2023-05-04T05:12:29.013Z,100.00
2023-05-04T05:14:55.967Z,100.00
2023-05-04T05:17:23.002Z,100.00
2023-05-04T05:19:50.047Z,100.00
2023-05-04T05:22:17.324Z,100.00
2023-05-04T05:24:44.304Z,100.00
2023-05-04T05:27:11.321Z,100.00
2023-05-04T05:29:39.019Z,100.00
2023-05-04T05:32:06.526Z,100.00
2023-05-04T05:34:33.594Z,100.00
2023-05-04T05:37:00.581Z,100.00
2023-05-04T05:39:28.815Z,100.00
2023-05-04T05:41:58.260Z,100.00
2023-05-04T05:44:25.304Z,100.00
2023-05-04T05:46:52.354Z,100.00
2023-05-04T05:49:19.314Z,100.00
2023-05-04T05:51:46.426Z,100.00
2023-05-04T05:54:13.384Z,100.00
2023-05-04T05:56:40.331Z,100.00
2023-05-04T05:59:07.362Z,100.00
2023-05-04T06:01:34.398Z,100.00
2023-05-04T06:04:01.500Z,100.00
2023-05-04T06:06:28.556Z,100.00
2023-05-04T06:08:55.723Z,100.00
2023-05-04T06:11:22.688Z,100.00
2023-05-04T06:13:49.797Z,100.00
2023-05-04T06:16:16.819Z,100.00
2023-05-04T06:18:43.796Z,100.00
2023-05-04T06:21:10.878Z,100.00
2023-05-04T06:23:37.957Z,100.00
2023-05-04T06:26:06.156Z,100.00
2023-05-04T06:28:33.373Z,100.00
2023-05-04T06:31:00.412Z,100.00
2023-05-04T06:33:27.437Z,100.00
2023-05-04T06:35:54.840Z,100.00
2023-05-04T06:38:22.099Z,100.00
2023-05-04T06:40:49.126Z,100.00
2023-05-04T06:43:16.076Z,100.00
2023-05-04T06:45:43.277Z,100.00
2023-05-04T06:48:11.792Z,100.00
2023-05-04T06:50:39.789Z,100.00
2023-05-04T06:53:10.261Z,100.00
2023-05-04T06:55:38.201Z,100.00
2023-05-04T06:58:05.334Z,100.00
2023-05-04T07:00:32.926Z,100.00
2023-05-04T07:02:59.973Z,100.00
2023-05-04T07:05:27.038Z,100.00
2023-05-04T07:07:54.097Z,100.00
2023-05-04T07:10:21.221Z,100.00
2023-05-04T07:12:48.941Z,100.00
2023-05-04T07:15:15.952Z,100.00
2023-05-04T07:17:43.204Z,100.00
2023-05-04T07:20:11.337Z,100.00
2023-05-04T07:22:38.290Z,100.00
2023-05-04T07:25:05.668Z,100.00
2023-05-04T07:27:32.698Z,100.00
2023-05-04T07:29:59.638Z,100.00
2023-05-04T07:32:26.672Z,100.00
2023-05-04T07:34:53.705Z,100.00
2023-05-04T07:37:20.694Z,100.00
2023-05-04T07:39:47.649Z,100.00
2023-05-04T07:42:14.628Z,100.00
2023-05-04T07:44:41.770Z,100.00
2023-05-04T07:47:08.943Z,100.00
2023-05-04T07:49:35.939Z,100.00
2023-05-04T07:52:04.219Z,96.28
2023-05-04T07:54:31.412Z,94.68
2023-05-04T07:56:58.342Z,100.00
2023-05-04T07:59:25.311Z,100.00
2023-05-04T08:01:52.766Z,100.00
2023-05-04T08:04:20.026Z,97.34
2023-05-04T08:06:47.236Z,93.94
2023-05-04T08:09:14.324Z,88.42
2023-05-04T08:11:41.587Z,92.08
2023-05-04T08:14:09.159Z,89.92
2023-05-04T08:16:36.325Z,82.40
2023-05-04T08:19:03.464Z,87.07
2023-05-04T08:21:30.475Z,88.80
2023-05-04T08:23:57.444Z,84.63
2023-05-04T08:26:24.739Z,86.79
2023-05-04T08:28:51.742Z,86.36
2023-05-04T08:31:19.189Z,81.21
2023-05-04T08:33:46.483Z,78.37
2023-05-04T08:36:13.605Z,76.44
2023-05-04T08:38:40.863Z,72.73
2023-05-04T08:41:08.945Z,71.95
2023-05-04T08:43:36.966Z,72.49
2023-05-04T08:46:04.865Z,69.22
2023-05-04T08:48:34.496Z,70.74
2023-05-04T08:51:02.899Z,70.67
2023-05-04T08:53:31.508Z,69.02
2023-05-04T08:56:04.692Z,66.02
2023-05-04T08:58:32.510Z,67.23
2023-05-04T09:01:01.375Z,68.00
2023-05-04T09:03:30.370Z,72.17
2023-05-04T09:05:58.494Z,70.99
2023-05-04T09:08:25.680Z,68.46
2023-05-04T09:10:52.650Z,65.44
2023-05-04T09:13:19.832Z,65.98
2023-05-04T09:15:56.911Z,68.24
2023-05-04T09:18:23.984Z,68.89
2023-05-04T09:20:50.955Z,65.20
2023-05-04T09:23:18.746Z,66.01
2023-05-04T09:25:55.984Z,66.49
2023-05-04T09:28:36.920Z,66.01
2023-05-04T09:31:04.035Z,65.97
2023-05-04T09:33:31.952Z,70.13
2023-05-04T09:36:21.104Z,64.63
2023-05-04T09:38:48.773Z,65.05
2023-05-04T09:41:15.907Z,64.25
2023-05-04T09:43:44.821Z,62.22
2023-05-04T09:46:19.314Z,61.20
2023-05-04T09:48:55.024Z,62.50
2023-05-04T09:51:25.839Z,66.03
2023-05-04T09:53:53.918Z,58.85
2023-05-04T09:56:33.708Z,61.05
2023-05-04T09:59:00.805Z,59.88
2023-05-04T10:01:31.994Z,63.95
2023-05-04T10:03:59.124Z,60.32
2023-05-04T10:06:30.575Z,57.57
2023-05-04T10:09:00.620Z,54.33
2023-05-04T10:11:28.704Z,56.02
2023-05-04T10:13:59.312Z,51.54
2023-05-04T10:17:00.172Z,52.46
2023-05-04T10:19:56.734Z,52.84
2023-05-04T10:23:03.741Z,52.35
2023-05-04T10:26:25.849Z,54.27
2023-05-04T10:29:24.756Z,59.74
2023-05-04T10:31:53.351Z,52.48
2023-05-04T10:34:32.277Z,53.44
2023-05-04T10:37:01.859Z,49.48
2023-05-04T10:39:34.228Z,60.53
2023-05-04T10:42:03.981Z,52.08
2023-05-04T10:44:58.164Z,55.60
2023-05-04T10:47:38.241Z,48.70
2023-05-04T10:50:11.178Z,53.47
2023-05-04T10:52:53.819Z,48.60
2023-05-04T10:55:22.130Z,50.30
2023-05-04T10:57:55.282Z,51.93
2023-05-04T11:00:23.810Z,52.75
2023-05-04T11:02:51.050Z,47.78
2023-05-04T11:05:20.176Z,47.18
2023-05-04T11:07:53.072Z,47.90
2023-05-04T11:10:25.862Z,45.91
2023-05-04T11:12:55.418Z,43.59
2023-05-04T11:15:22.645Z,46.16
2023-05-04T11:17:52.033Z,44.23
2023-05-04T11:20:27.509Z,45.13
2023-05-04T11:22:54.904Z,45.99
2023-05-04T11:25:29.927Z,53.73
2023-05-04T11:28:01.843Z,50.39
2023-05-04T11:30:36.013Z,40.91
2023-05-04T11:33:05.192Z,45.26
2023-05-04T11:35:32.342Z,40.63
2023-05-04T11:37:59.370Z,40.88
2023-05-04T11:40:27.408Z,42.61
2023-05-04T11:42:57.270Z,44.34
2023-05-04T11:45:27.458Z,48.54
2023-05-04T11:47:56.871Z,43.54
2023-05-04T11:50:25.796Z,43.94
2023-05-04T11:53:09.302Z,45.25
2023-05-04T11:55:38.068Z,42.07
2023-05-04T11:58:06.762Z,40.24
2023-05-04T12:00:41.942Z,39.74
2023-05-04T12:03:27.979Z,43.28
2023-05-04T12:06:03.153Z,42.57
2023-05-04T12:08:35.083Z,42.96
2023-05-04T12:11:25.591Z,41.14
2023-05-04T12:14:11.608Z,37.78
2023-05-04T12:16:39.285Z,40.22
2023-05-04T12:19:13.247Z,39.59
2023-05-04T12:21:51.985Z,38.84
2023-05-04T12:24:23.819Z,41.50
2023-05-04T12:26:51.380Z,42.26
2023-05-04T12:29:18.535Z,37.42
2023-05-04T12:31:45.746Z,41.35
2023-05-04T12:34:12.765Z,40.81
2023-05-04T12:36:39.731Z,41.96
2023-05-04T12:39:06.711Z,38.99
2023-05-04T12:41:33.958Z,40.83
2023-05-04T12:44:01.407Z,40.12
2023-05-04T12:46:28.601Z,37.12
2023-05-04T12:48:56.681Z,37.43
2023-05-04T12:51:23.620Z,42.54
2023-05-04T12:53:50.662Z,39.79
2023-05-04T12:56:17.636Z,39.63
2023-05-04T12:58:45.155Z,39.99
2023-05-04T13:01:12.332Z,38.24
2023-05-04T13:03:39.605Z,38.01
2023-05-04T13:06:06.932Z,40.79
2023-05-04T13:08:33.902Z,37.65
2023-05-04T13:11:01.330Z,39.96
2023-05-04T13:13:29.633Z,37.39
2023-05-04T13:15:57.491Z,37.21
2023-05-04T13:18:27.318Z,37.34
2023-05-04T13:20:56.026Z,39.09
2023-05-04T13:23:23.657Z,36.82
2023-05-04T13:25:51.198Z,37.94
2023-05-04T13:28:18.986Z,37.17
2023-05-04T13:30:45.935Z,38.49
2023-05-04T13:33:27.377Z,36.06
2023-05-04T13:35:57.729Z,36.53
2023-05-04T13:38:25.037Z,37.50
2023-05-04T13:40:52.015Z,39.25
2023-05-04T13:43:19.037Z,38.17
2023-05-04T13:45:46.169Z,36.59
2023-05-04T13:48:13.256Z,38.08
2023-05-04T13:50:40.380Z,39.25
2023-05-04T13:53:07.473Z,36.32
2023-05-04T13:55:34.564Z,36.26
2023-05-04T13:58:01.531Z,36.23
2023-05-04T14:00:28.620Z,37.38
2023-05-04T14:02:55.793Z,39.32
2023-05-04T14:05:23.042Z,38.85
2023-05-04T14:07:51.691Z,38.27
2023-05-04T14:10:18.869Z,39.76
2023-05-04T14:15:32.976Z,40.19
2023-05-04T14:18:00.026Z,38.76
2023-05-04T14:20:27.068Z,41.14
2023-05-04T14:22:54.120Z,40.99
2023-05-04T14:25:22.388Z,40.28
2023-05-04T14:27:49.400Z,39.52
2023-05-04T14:30:17.336Z,39.46
2023-05-04T14:32:44.458Z,40.33
2023-05-04T14:35:12.811Z,41.68
2023-05-04T14:37:40.574Z,41.72
2023-05-04T14:40:10.655Z,42.59
2023-05-04T14:42:38.519Z,41.21
2023-05-04T14:45:07.668Z,42.03
2023-05-04T14:47:35.571Z,43.27
2023-05-04T14:50:03.475Z,43.75
2023-05-04T14:52:31.896Z,40.40
2023-05-04T14:54:59.069Z,40.27
2023-05-04T14:57:26.162Z,42.71
2023-05-04T14:59:53.127Z,43.49
2023-05-04T15:02:20.964Z,45.28
2023-05-04T15:04:49.186Z,43.85
2023-05-04T15:07:18.363Z,44.34
2023-05-04T15:09:45.896Z,41.41
2023-05-04T15:12:12.939Z,43.91
2023-05-04T15:14:39.912Z,39.99
2023-05-04T15:17:07.411Z,45.90
2023-05-04T15:19:38.322Z,41.29
2023-05-04T15:22:06.986Z,45.20
2023-05-04T15:24:34.413Z,40.21
2023-05-04T15:27:02.076Z,44.30
2023-05-04T15:29:29.435Z,39.92
2023-05-04T15:31:56.593Z,43.20
2023-05-04T15:34:23.724Z,41.08
2023-05-04T15:36:50.859Z,43.44
2023-05-04T15:39:17.783Z,45.36
2023-05-04T15:41:44.740Z,45.33
2023-05-04T15:44:11.871Z,40.73
2023-05-04T15:46:39.363Z,40.49
2023-05-04T15:49:06.562Z,44.93
2023-05-04T15:51:33.645Z,40.34
2023-05-04T15:54:00.638Z,38.87
2023-05-04T15:56:28.650Z,39.77
2023-05-04T15:58:58.020Z,39.25
2023-05-04T16:01:25.384Z,42.70
2023-05-04T16:03:55.672Z,38.18
2023-05-04T16:06:23.730Z,39.46
2023-05-04T16:08:50.902Z,40.98
2023-05-04T16:11:17.945Z,40.51
2023-05-04T16:13:46.234Z,41.13
2023-05-04T16:16:13.351Z,40.90
2023-05-04T16:18:40.336Z,43.72
2023-05-04T16:21:08.875Z,40.15
2023-05-04T16:23:36.415Z,42.47
2023-05-04T16:26:03.617Z,40.60
2023-05-04T16:28:31.136Z,39.90
2023-05-04T16:30:58.160Z,46.10
2023-05-04T16:33:26.802Z,46.05
2023-05-04T16:35:53.925Z,40.51
2023-05-04T16:38:21.334Z,43.24
2023-05-04T16:40:48.446Z,40.99
2023-05-04T16:43:15.966Z,41.15
2023-05-04T16:45:43.378Z,46.48
2023-05-04T16:48:10.708Z,47.26
2023-05-04T16:50:38.330Z,42.43
2023-05-04T16:53:05.263Z,42.78
2023-05-04T16:55:32.243Z,40.93
2023-05-04T16:57:59.410Z,44.17
2023-05-04T17:00:26.521Z,43.56
2023-05-04T17:02:54.106Z,42.44
2023-05-04T17:05:21.600Z,44.46
2023-05-04T17:07:48.687Z,40.99
2023-05-04T17:10:18.929Z,42.29
2023-05-04T17:12:46.352Z,42.55
2023-05-04T17:15:13.780Z,41.88
2023-05-04T17:17:41.575Z,47.05
2023-05-04T17:20:14.592Z,42.06
2023-05-04T17:22:43.088Z,40.10
2023-05-04T17:25:11.652Z,45.88
2023-05-04T17:27:38.996Z,50.45
2023-05-04T17:30:07.017Z,44.71
2023-05-04T17:32:35.487Z,45.87
2023-05-04T17:35:16.027Z,43.14
2023-05-04T17:37:51.215Z,43.40
2023-05-04T17:40:18.350Z,42.30
2023-05-04T17:42:45.471Z,47.97
2023-05-04T17:45:12.617Z,53.56
2023-05-04T17:47:39.841Z,47.31
2023-05-04T17:50:07.650Z,45.42
2023-05-04T17:52:37.210Z,45.98
2023-05-04T17:55:05.134Z,50.75
2023-05-04T17:57:32.436Z,44.32
2023-05-04T18:00:00.151Z,47.21
2023-05-04T18:02:29.630Z,44.22
2023-05-04T18:04:56.604Z,44.77
2023-05-04T18:07:23.569Z,43.10
2023-05-04T18:09:50.947Z,47.64
2023-05-04T18:12:18.322Z,47.31
2023-05-04T18:14:45.241Z,47.71
2023-05-04T18:17:12.179Z,46.43
2023-05-04T18:19:39.520Z,47.04
2023-05-04T18:22:06.524Z,53.20
2023-05-04T18:24:34.077Z,46.14
2023-05-04T18:27:02.093Z,55.23
2023-05-04T18:29:29.451Z,57.52
2023-05-04T18:31:56.841Z,55.21
2023-05-04T18:34:24.211Z,59.05
2023-05-04T18:36:51.657Z,51.68
2023-05-04T18:39:19.048Z,53.01
2023-05-04T18:41:46.738Z,52.35
2023-05-04T18:44:17.223Z,58.33
2023-05-04T18:46:44.742Z,57.24
2023-05-04T18:49:11.784Z,56.54
2023-05-04T18:51:41.685Z,62.68
2023-05-04T18:54:09.205Z,57.51
2023-05-04T18:56:36.539Z,62.85
2023-05-04T18:59:05.929Z,54.67
2023-05-04T19:01:33.453Z,65.69
2023-05-04T19:04:01.101Z,67.17
2023-05-04T19:06:28.143Z,63.25
2023-05-04T19:08:55.582Z,63.83
2023-05-04T19:11:22.671Z,57.08
2023-05-04T19:13:50.002Z,66.98
2023-05-04T19:16:17.375Z,51.76
2023-05-04T19:18:45.677Z,58.00
2023-05-04T19:21:13.475Z,54.99
2023-05-04T19:23:40.933Z,68.27
2023-05-04T19:26:07.950Z,70.51
2023-05-04T19:28:35.293Z,65.80
2023-05-04T19:31:02.602Z,68.28
2023-05-04T19:33:40.824Z,70.09
2023-05-04T19:36:16.282Z,73.28
2023-05-04T19:38:43.531Z,73.38
2023-05-04T19:41:10.641Z,73.07
2023-05-04T19:43:39.011Z,70.86
2023-05-04T19:46:06.687Z,76.21
2023-05-04T19:48:33.828Z,77.79
2023-05-04T19:51:00.865Z,76.40
2023-05-04T19:53:27.959Z,76.96
2023-05-04T19:55:55.014Z,77.64
2023-05-04T19:58:25.970Z,78.69
2023-05-04T20:00:53.398Z,78.44
2023-05-04T20:03:22.648Z,77.14
2023-05-04T20:05:51.925Z,78.65
2023-05-04T20:08:19.418Z,80.63
2023-05-04T20:10:46.682Z,81.70
2023-05-04T20:13:13.855Z,79.22
2023-05-04T20:15:40.973Z,76.35
2023-05-04T20:18:08.551Z,81.61
2023-05-04T20:20:35.785Z,73.71
2023-05-04T20:23:03.167Z,83.41
2023-05-04T20:25:30.196Z,84.83
2023-05-04T20:27:57.610Z,84.89
2023-05-04T20:30:28.151Z,85.84
2023-05-04T20:32:55.513Z,88.46
2023-05-04T20:35:22.786Z,86.76
2023-05-04T20:37:49.817Z,87.72
2023-05-04T20:40:16.958Z,84.83
2023-05-04T20:42:44.422Z,88.65
2023-05-04T20:45:11.500Z,85.41
2023-05-04T20:47:38.591Z,86.36
2023-05-04T20:50:08.168Z,83.24
2023-05-04T20:52:35.443Z,80.70
2023-05-04T20:55:02.568Z,83.70
2023-05-04T20:57:30.024Z,90.40
2023-05-04T20:59:57.138Z,76.46
2023-05-04T21:02:24.195Z,88.48
2023-05-04T21:04:52.301Z,86.76
2023-05-04T21:07:19.510Z,91.58
2023-05-04T21:09:46.539Z,80.25
2023-05-04T21:12:13.668Z,85.08
2023-05-04T21:14:40.745Z,87.88
2023-05-04T21:17:08.490Z,88.75
2023-05-04T21:19:35.450Z,89.80
2023-05-04T21:22:02.427Z,90.92
2023-05-04T21:24:31.253Z,71.48
2023-05-04T21:26:58.284Z,78.17
2023-05-04T21:29:25.678Z,88.26
2023-05-04T21:31:52.735Z,89.27
2023-05-04T21:34:19.826Z,87.35
2023-05-04T21:36:46.826Z,85.51
2023-05-04T21:39:14.512Z,90.04
2023-05-04T21:41:41.545Z,91.36
2023-05-04T21:44:08.848Z,90.47
2023-05-04T21:46:35.873Z,80.81
2023-05-04T21:49:02.890Z,84.49
2023-05-04T21:51:29.958Z,89.09
2023-05-04T21:53:57.081Z,94.32
2023-05-04T21:56:24.045Z,80.68
2023-05-04T21:58:51.005Z,91.84
2023-05-04T22:01:18.408Z,81.50
2023-05-04T22:03:45.952Z,94.32
2023-05-04T22:06:13.128Z,78.64
2023-05-04T22:08:40.104Z,92.87
2023-05-04T22:11:07.668Z,87.37
2023-05-04T22:13:34.633Z,84.80
2023-05-04T22:16:02.040Z,80.53
2023-05-04T22:18:29.176Z,81.92
2023-05-04T22:20:56.210Z,97.43
2023-05-04T22:23:23.544Z,89.94
2023-05-04T22:25:50.716Z,93.28
2023-05-04T22:28:17.787Z,75.16
2023-05-04T22:30:44.797Z,86.55
2023-05-04T22:33:11.832Z,95.04
2023-05-04T22:35:38.832Z,79.20
2023-05-04T22:38:05.778Z,72.78
2023-05-04T22:40:33.254Z,69.08
2023-05-04T22:43:00.542Z,100.00
2023-05-04T22:45:27.590Z,85.35
2023-05-04T22:47:54.749Z,78.95
2023-05-04T22:50:21.729Z,94.96
2023-05-04T22:52:48.941Z,94.88
2023-05-04T22:55:16.266Z,99.42
2023-05-04T22:57:43.246Z,100.00
2023-05-04T23:00:11.317Z,87.35
2023-05-04T23:02:38.796Z,94.71
2023-05-04T23:05:06.889Z,98.66
2023-05-04T23:07:34.015Z,97.45
2023-05-04T23:10:01.430Z,78.91
2023-05-04T23:12:28.532Z,93.83
2023-05-04T23:14:55.534Z,78.48
2023-05-04T23:17:22.590Z,68.67
2023-05-04T23:19:49.790Z,97.59
2023-05-04T23:22:17.194Z,84.42
2023-05-04T23:24:44.190Z,91.90
2023-05-04T23:27:11.509Z,92.16
2023-05-04T23:29:38.626Z,94.77
2023-05-04T23:32:06.419Z,100.00
2023-05-04T23:34:33.538Z,97.72
2023-05-04T23:37:00.637Z,83.13
2023-05-04T23:39:27.733Z,94.04
2023-05-04T23:41:54.713Z,68.23
2023-05-04T23:44:21.725Z,64.19
2023-05-04T23:46:48.749Z,97.37
2023-05-04T23:49:15.807Z,98.94
2023-05-04T23:51:42.937Z,100.00
2023-05-04T23:54:09.944Z,99.84
2023-05-04T23:56:36.964Z,100.00
2023-05-04T23:59:04.828Z,100.00
